Time;durP1;ratioP1;P1;durP2;ratioP2;P2;SDS_P1;SDS_P2;PMS_P1;PMS_P2;Temp;Humidity;BMP_temperature;BMP_pressure;BME280_temperature;BME280_humidity;BME280_pressure;Samples;Min_cycle;Max_cycle;Signal;HPM_P1;HPM_P2
2022/04/15 00:02:25;;;;;;;11.80;8.10;;;13.70;69.50;;;;;;5056082;28;20413;-62
2022/04/15 00:04:50;;;;;;;12.40;8.63;;;13.70;69.50;;;;;;5058031;28;20453;-62
2022/04/15 00:07:17;;;;;;;13.60;8.35;;;13.70;69.50;;;;;;5057003;28;20111;-62
2022/04/15 00:09:43;;;;;;;13.30;7.65;;;13.60;69.50;;;;;;5057642;28;20102;-62
2022/04/15 00:12:17;;;;;;;14.38;8.20;;;13.60;69.50;;;;;;5057894;28;20025;-62
2022/04/15 00:14:43;;;;;;;15.80;9.18;;;13.60;69.50;;;;;;5057569;28;20041;-62
2022/04/15 00:17:09;;;;;;;13.43;8.20;;;13.50;69.50;;;;;;5058856;28;20021;-62
2022/04/15 00:19:35;;;;;;;15.43;8.18;;;13.50;69.60;;;;;;5057723;28;20087;-62
2022/04/15 00:22:00;;;;;;;12.27;7.65;;;13.50;69.60;;;;;;5057491;28;20052;-62
2022/04/15 00:24:26;;;;;;;14.20;9.20;;;13.40;69.70;;;;;;5057422;28;20063;-62
2022/04/15 00:26:52;;;;;;;16.73;8.55;;;13.40;69.70;;;;;;5057737;28;20021;-63
2022/04/15 00:29:18;;;;;;;12.55;8.30;;;13.40;69.70;;;;;;5057725;28;20025;-62
2022/04/15 00:31:43;;;;;;;14.02;8.55;;;13.40;69.80;;;;;;5057245;28;20076;-62
2022/04/15 00:34:09;;;;;;;13.75;8.45;;;13.30;69.90;;;;;;5068209;28;20067;-62
2022/04/15 00:36:34;;;;;;;13.30;9.10;;;13.30;69.90;;;;;;5068235;28;20025;-62
2022/04/15 00:39:00;;;;;;;12.82;9.15;;;13.30;69.90;;;;;;5056536;28;20052;-62
2022/04/15 00:41:26;;;;;;;16.13;8.93;;;13.30;69.90;;;;;;5056273;28;20036;-62
2022/04/15 00:43:55;;;;;;;14.32;8.65;;;13.20;69.90;;;;;;5056991;28;20358;-62
2022/04/15 00:46:21;;;;;;;13.55;9.43;;;13.20;69.90;;;;;;5058126;28;20021;-63
2022/04/15 00:48:47;;;;;;;13.98;9.88;;;13.20;70.00;;;;;;5056698;28;20032;-63
2022/04/15 00:51:13;;;;;;;13.85;8.63;;;13.20;70.00;;;;;;5063814;28;20037;-62
2022/04/15 00:53:40;;;;;;;15.35;8.63;;;13.20;70.00;;;;;;5055685;28;20025;-63
2022/04/15 00:56:08;;;;;;;13.52;9.70;;;13.10;70.70;;;;;;5057063;28;20028;-62
2022/04/15 00:58:35;;;;;;;13.10;8.88;;;13.10;70.10;;;;;;5067170;28;20036;-62
2022/04/15 01:01:02;;;;;;;16.02;9.43;;;13.10;70.20;;;;;;5055929;28;20037;-62
2022/04/15 01:03:29;;;;;;;14.25;9.27;;;13.10;70.30;;;;;;5055652;28;20033;-63
2022/04/15 01:05:59;;;;;;;14.23;9.95;;;13.00;70.30;;;;;;5057638;28;20033;-62
2022/04/15 01:08:28;;;;;;;15.50;9.98;;;13.00;70.30;;;;;;5062554;28;20412;-63
2022/04/15 01:10:58;;;;;;;15.05;10.70;;;13.00;70.50;;;;;;5056558;28;20079;-62
2022/04/15 01:13:25;;;;;;;12.98;9.13;;;12.90;70.40;;;;;;5060968;28;20033;-62
2022/04/15 01:15:54;;;;;;;14.57;9.43;;;12.90;70.50;;;;;;5055403;28;20127;-62
2022/04/15 01:18:19;;;;;;;14.02;9.82;;;12.90;70.60;;;;;;5067402;28;20024;-62
2022/04/15 01:20:50;;;;;;;15.70;10.25;;;12.90;70.60;;;;;;5065756;28;20530;-62
2022/04/15 01:23:16;;;;;;;12.80;9.50;;;12.90;70.60;;;;;;5059017;28;20033;-62
2022/04/15 01:25:41;;;;;;;13.98;9.90;;;12.90;70.60;;;;;;5059222;28;20162;-62
2022/04/15 01:28:07;;;;;;;15.35;10.40;;;12.90;70.70;;;;;;5062922;28;20446;-63
2022/04/15 01:30:33;;;;;;;15.38;9.82;;;12.80;70.70;;;;;;5066851;28;20020;-63
2022/04/15 01:32:58;;;;;;;14.45;9.75;;;12.80;70.80;;;;;;5064048;28;20084;-63
2022/04/15 01:35:24;;;;;;;14.13;10.05;;;12.70;70.90;;;;;;5056345;28;20033;-62
2022/04/15 01:37:50;;;;;;;15.02;10.43;;;12.70;70.90;;;;;;5065494;28;20029;-62
2022/04/15 01:40:18;;;;;;;14.90;10.57;;;12.70;71.00;;;;;;5054934;28;20075;-62
2022/04/15 01:42:46;;;;;;;14.90;10.70;;;12.70;71.10;;;;;;5054091;28;20029;-62
2022/04/15 01:45:12;;;;;;;15.70;10.30;;;12.70;71.20;;;;;;5055534;28;20032;-62
2022/04/15 01:47:38;;;;;;;15.57;10.50;;;12.70;71.20;;;;;;5061697;28;20043;-62
2022/04/15 01:50:05;;;;;;;12.77;9.75;;;12.70;71.20;;;;;;5062008;28;20033;-62
2022/04/15 01:52:31;;;;;;;12.93;10.00;;;12.60;71.20;;;;;;5059879;28;20017;-62
2022/04/15 01:54:57;;;;;;;13.63;9.95;;;12.60;71.20;;;;;;5065379;28;20048;-63
2022/04/15 01:57:23;;;;;;;13.80;8.80;;;12.60;71.30;;;;;;5069539;28;20032;-62
2022/04/15 01:59:49;;;;;;;13.77;9.35;;;12.50;71.30;;;;;;5055354;28;20139;-63
2022/04/15 02:02:15;;;;;;;13.05;9.05;;;12.50;71.30;;;;;;5055294;28;20017;-62
2022/04/15 02:04:41;;;;;;;13.63;9.15;;;12.50;71.30;;;;;;5054760;28;20033;-62
2022/04/15 02:07:07;;;;;;;13.90;9.82;;;12.50;71.30;;;;;;5068970;28;20117;-62
2022/04/15 02:09:32;;;;;;;15.48;10.10;;;12.50;71.40;;;;;;5055437;28;20163;-62
2022/04/15 02:11:58;;;;;;;13.77;8.93;;;12.50;71.30;;;;;;5055426;28;20037;-62
2022/04/15 02:14:24;;;;;;;14.65;9.73;;;12.50;71.30;;;;;;5055129;28;20048;-62
2022/04/15 02:16:53;;;;;;;14.70;9.10;;;12.40;71.20;;;;;;5066365;28;20032;-63
2022/04/15 02:19:22;;;;;;;14.00;8.73;;;12.40;71.30;;;;;;5058450;28;20028;-62
2022/04/15 02:21:48;;;;;;;11.80;8.77;;;12.40;71.20;;;;;;5072654;28;20063;-62
2022/04/15 02:24:14;;;;;;;12.38;8.13;;;12.40;71.20;;;;;;5073202;28;20028;-62
2022/04/15 02:26:40;;;;;;;11.93;8.43;;;12.40;71.10;;;;;;5063728;28;20032;-62
2022/04/15 02:29:06;;;;;;;11.70;7.60;;;12.30;71.00;;;;;;5072438;28;20407;-62
2022/04/15 02:31:31;;;;;;;11.82;8.32;;;12.30;71.10;;;;;;5056939;28;20021;-62
2022/04/15 02:33:57;;;;;;;15.57;8.38;;;12.30;71.00;;;;;;5054077;28;20472;-62
2022/04/15 02:36:22;;;;;;;11.68;7.72;;;12.30;71.00;;;;;;5061069;28;20471;-62
2022/04/15 02:38:48;;;;;;;11.10;7.65;;;12.20;70.80;;;;;;5063142;28;20029;-62
2022/04/15 02:41:14;;;;;;;11.25;7.57;;;12.20;70.80;;;;;;5054916;28;20057;-62
2022/04/15 02:43:39;;;;;;;12.07;7.72;;;12.20;70.80;;;;;;5060841;28;20024;-62
2022/04/15 02:46:07;;;;;;;11.27;7.00;;;12.20;70.80;;;;;;5066121;28;20021;-62
2022/04/15 02:48:34;;;;;;;10.55;6.93;;;12.10;70.90;;;;;;5069009;28;20025;-62
2022/04/15 02:51:00;;;;;;;12.25;7.20;;;12.10;70.80;;;;;;5052887;28;20417;-62
2022/04/15 02:53:26;;;;;;;10.35;6.80;;;12.10;70.90;;;;;;5055052;28;20048;-62
2022/04/15 02:55:52;;;;;;;11.68;7.72;;;12.10;71.00;;;;;;5061089;28;20063;-62
2022/04/15 02:58:21;;;;;;;11.68;7.20;;;12.10;71.10;;;;;;5073265;28;20406;-62
2022/04/15 03:00:47;;;;;;;11.20;7.72;;;12.10;71.10;;;;;;5054364;28;20458;-62
2022/04/15 03:03:13;;;;;;;11.85;7.85;;;12.10;71.10;;;;;;5054162;28;20029;-62
2022/04/15 03:05:39;;;;;;;11.98;7.75;;;12.10;71.10;;;;;;5066592;28;20345;-62
2022/04/15 03:08:05;;;;;;;12.27;8.00;;;12.10;71.10;;;;;;5072770;28;20113;-61
2022/04/15 03:10:31;;;;;;;10.57;7.50;;;12.10;71.10;;;;;;5063270;28;20158;-62
2022/04/15 03:12:57;;;;;;;14.38;8.02;;;12.10;71.10;;;;;;5053174;28;20041;-62
2022/04/15 03:15:22;;;;;;;12.55;7.78;;;12.10;71.10;;;;;;5070928;28;20031;-62
2022/04/15 03:17:48;;;;;;;12.45;8.40;;;12.10;71.20;;;;;;5058366;28;20025;-63
2022/04/15 03:20:13;;;;;;;15.15;8.57;;;12.10;71.30;;;;;;5058727;28;20041;-62
2022/04/15 03:22:41;;;;;;;14.88;8.68;;;12.10;71.40;;;;;;5058009;28;20025;-62
2022/04/15 03:25:09;;;;;;;12.07;7.97;;;12.00;71.30;;;;;;5066610;28;20025;-62
2022/04/15 03:27:35;;;;;;;12.93;8.02;;;12.10;71.50;;;;;;5057939;28;20353;-62
2022/04/15 03:30:02;;;;;;;11.48;8.40;;;12.10;72.10;;;;;;5057905;28;20100;-62
2022/04/15 03:32:28;;;;;;;13.02;8.15;;;12.10;71.50;;;;;;5057678;28;20041;-62
2022/04/15 03:34:57;;;;;;;15.30;8.75;;;12.10;71.50;;;;;;5060078;28;20045;-62
2022/04/15 03:37:24;;;;;;;11.75;8.02;;;12.10;71.50;;;;;;5057746;28;20033;-62
2022/04/15 03:39:50;;;;;;;11.43;8.38;;;12.10;71.50;;;;;;5062055;28;20048;-62
2022/04/15 03:42:15;;;;;;;13.13;8.27;;;12.10;71.50;;;;;;5057997;28;20059;-62
2022/04/15 03:44:41;;;;;;;13.60;8.50;;;12.10;71.40;;;;;;5058047;28;20024;-62
2022/04/15 03:47:07;;;;;;;14.32;7.97;;;12.10;71.40;;;;;;5057257;28;20025;-62
2022/04/15 03:49:33;;;;;;;12.52;8.25;;;12.20;71.50;;;;;;5057912;28;20100;-62
2022/04/15 03:51:59;;;;;;;11.10;8.05;;;12.20;71.50;;;;;;5058004;28;20422;-62
2022/04/15 03:54:25;;;;;;;13.85;8.48;;;12.20;71.50;;;;;;5057732;28;20025;-62
2022/04/15 03:56:51;;;;;;;15.15;8.73;;;12.20;71.40;;;;;;5057660;28;20472;-62
2022/04/15 03:59:17;;;;;;;12.75;7.90;;;12.20;71.40;;;;;;5056617;28;20110;-62
2022/04/15 04:01:43;;;;;;;11.43;7.88;;;12.20;71.30;;;;;;5058405;28;20029;-62
2022/04/15 04:04:09;;;;;;;13.25;8.18;;;12.20;71.30;;;;;;5058292;28;20040;-62
2022/04/15 04:06:35;;;;;;;12.20;7.47;;;12.20;71.30;;;;;;5071258;28;20051;-61
2022/04/15 04:09:01;;;;;;;10.77;8.07;;;12.20;71.30;;;;;;5057839;28;20472;-63
2022/04/15 04:11:26;;;;;;;13.43;8.50;;;12.20;71.20;;;;;;5075908;28;20029;-63
2022/04/15 04:13:52;;;;;;;12.18;7.85;;;12.20;71.20;;;;;;5066708;28;20063;-62
2022/04/15 04:16:18;;;;;;;15.48;8.43;;;12.20;71.10;;;;;;5059049;28;20029;-62
2022/04/15 04:18:44;;;;;;;11.77;7.72;;;12.10;71.10;;;;;;5056725;28;20082;-62
2022/04/15 04:21:10;;;;;;;10.88;7.88;;;12.10;71.10;;;;;;5072429;28;20040;-61
2022/04/15 04:23:36;;;;;;;13.68;7.60;;;12.10;71.10;;;;;;5068147;28;20099;-62
2022/04/15 04:26:03;;;;;;;10.90;7.28;;;12.10;71.10;;;;;;5063232;28;20036;-62
2022/04/15 04:28:29;;;;;;;12.13;7.93;;;12.10;71.00;;;;;;5057205;28;20064;-62
2022/04/15 04:30:54;;;;;;;10.18;7.13;;;12.10;70.90;;;;;;5068465;28;20052;-62
2022/04/15 04:33:20;;;;;;;11.30;6.97;;;12.10;70.90;;;;;;5070274;28;20147;-62
2022/04/15 04:35:46;;;;;;;11.57;7.13;;;12.00;70.90;;;;;;5064446;28;20037;-61
2022/04/15 04:38:13;;;;;;;10.50;7.35;;;12.00;70.80;;;;;;5057263;28;20045;-62
2022/04/15 04:40:39;;;;;;;13.48;6.43;;;12.00;70.80;;;;;;5056649;28;20473;-62
2022/04/15 04:43:05;;;;;;;10.65;6.80;;;12.00;70.70;;;;;;5056958;28;20095;-62
2022/04/15 04:45:34;;;;;;;9.55;6.30;;;12.00;70.70;;;;;;5063832;28;20331;-62
2022/04/15 04:48:01;;;;;;;11.95;7.28;;;11.90;70.60;;;;;;5058440;28;20033;-62
2022/04/15 04:50:28;;;;;;;10.57;6.90;;;11.90;70.60;;;;;;5060764;28;20024;-62
2022/04/15 04:52:53;;;;;;;12.25;7.40;;;11.90;71.30;;;;;;5056039;28;20033;-62
2022/04/15 04:55:19;;;;;;;12.07;6.72;;;11.90;70.60;;;;;;5056746;28;20070;-62
2022/04/15 04:57:45;;;;;;;9.88;6.95;;;11.90;70.60;;;;;;5056541;28;20465;-62
2022/04/15 05:00:13;;;;;;;11.90;7.30;;;11.90;70.60;;;;;;5056740;28;20257;-62
2022/04/15 05:02:39;;;;;;;11.15;6.65;;;11.80;70.60;;;;;;5056508;28;20029;-62
2022/04/15 05:05:06;;;;;;;11.75;6.93;;;11.80;70.60;;;;;;5059666;28;20032;-62
2022/04/15 05:07:31;;;;;;;9.80;5.95;;;11.80;70.70;;;;;;5055843;28;20031;-62
2022/04/15 05:09:57;;;;;;;11.50;6.72;;;11.80;70.70;;;;;;5054746;28;20032;-62
2022/04/15 05:12:23;;;;;;;11.50;6.82;;;11.80;70.70;;;;;;5059031;28;20079;-62
2022/04/15 05:14:49;;;;;;;12.63;6.97;;;11.80;70.70;;;;;;5057227;28;20025;-62
2022/04/15 05:17:15;;;;;;;11.93;6.47;;;11.80;70.70;;;;;;5056810;28;20029;-62
2022/04/15 05:19:40;;;;;;;15.00;7.13;;;11.80;70.70;;;;;;5056808;28;20040;-62
2022/04/15 05:22:08;;;;;;;11.32;7.30;;;11.70;70.60;;;;;;5056765;28;20032;-61
2022/04/15 05:24:33;;;;;;;11.80;6.90;;;11.80;70.70;;;;;;5056033;28;20037;-61
2022/04/15 05:26:59;;;;;;;11.20;7.32;;;11.80;70.60;;;;;;5055733;28;20409;-62
2022/04/15 05:29:25;;;;;;;11.07;6.53;;;11.80;70.60;;;;;;5056337;28;20116;-62
2022/04/15 05:31:50;;;;;;;9.50;6.55;;;11.80;70.60;;;;;;5056237;28;20025;-62
2022/04/15 05:34:16;;;;;;;11.55;6.55;;;11.80;70.50;;;;;;5056945;28;20120;-62
2022/04/15 05:36:41;;;;;;;12.52;7.00;;;11.80;70.50;;;;;;5075125;28;20362;-62
2022/04/15 05:39:07;;;;;;;10.48;6.38;;;11.90;70.60;;;;;;5075337;28;20032;-62
2022/04/15 05:41:33;;;;;;;11.98;6.65;;;11.90;70.50;;;;;;5064782;28;20029;-62
2022/04/15 05:43:58;;;;;;;10.57;5.90;;;11.90;70.40;;;;;;5055865;28;20036;-63
2022/04/15 05:46:27;;;;;;;11.52;6.25;;;12.20;70.10;;;;;;5055941;28;20017;-63
2022/04/15 05:48:53;;;;;;;9.73;6.18;;;12.40;69.40;;;;;;5058004;28;20035;-63
2022/04/15 05:51:19;;;;;;;10.55;6.00;;;12.70;68.70;;;;;;5069348;28;20032;-63
2022/04/15 05:53:45;;;;;;;10.80;5.97;;;13.00;68.00;;;;;;5070362;28;20065;-63
2022/04/15 05:56:11;;;;;;;9.00;5.38;;;13.30;67.20;;;;;;5072020;28;20444;-63
2022/04/15 05:58:36;;;;;;;9.25;5.10;;;13.50;66.70;;;;;;5056727;28;20049;-64
2022/04/15 06:01:02;;;;;;;8.65;4.72;;;13.70;66.20;;;;;;5057083;28;20120;-64
2022/04/15 06:03:34;;;;;;;8.68;4.55;;;14.10;65.40;;;;;;5055090;28;20028;-64
2022/04/15 06:06:00;;;;;;;8.90;4.63;;;14.30;65.20;;;;;;5072082;28;20048;-64
2022/04/15 06:08:26;;;;;;;9.23;3.97;;;14.40;64.20;;;;;;5055849;28;20029;-64
2022/04/15 06:10:52;;;;;;;8.90;4.20;;;14.60;63.70;;;;;;5059283;28;20082;-64
2022/04/15 06:13:22;;;;;;;7.80;3.90;;;14.80;63.20;;;;;;5069712;28;20025;-64
2022/04/15 06:15:53;;;;;;;7.97;4.13;;;14.80;62.80;;;;;;5056888;28;20357;-64
2022/04/15 06:18:25;;;;;;;9.45;3.33;;;15.10;62.30;;;;;;5056292;28;20400;-63
2022/04/15 06:20:51;;;;;;;6.68;3.17;;;15.80;60.90;;;;;;5060845;28;20021;-64
2022/04/15 06:23:18;;;;;;;6.32;3.10;;;16.60;59.20;;;;;;5055410;28;20040;-63
2022/04/15 06:25:44;;;;;;;6.40;3.15;;;17.40;57.60;;;;;;5054346;28;20408;-63
2022/04/15 06:28:10;;;;;;;6.60;3.22;;;18.00;56.30;;;;;;5057967;28;20124;-63
2022/04/15 06:30:36;;;;;;;6.47;2.60;;;17.90;55.90;;;;;;5054302;28;20025;-64
2022/04/15 06:33:05;;;;;;;7.47;2.50;;;17.80;55.80;;;;;;5052824;28;20056;-65
2022/04/15 06:35:32;;;;;;;7.78;2.90;;;17.70;55.80;;;;;;5039085;28;20028;-65
2022/04/15 06:37:57;;;;;;;9.13;2.67;;;17.50;55.80;;;;;;5057939;28;20036;-65
2022/04/15 06:40:23;;;;;;;7.25;3.20;;;17.40;55.90;;;;;;5041045;28;20095;-65
2022/04/15 06:42:49;;;;;;;5.63;2.42;;;17.20;55.90;;;;;;5044366;28;20025;-64
2022/04/15 06:45:14;;;;;;;7.32;2.70;;;17.00;56.00;;;;;;5050313;28;20041;-64
2022/04/15 06:47:40;;;;;;;7.43;3.05;;;16.90;56.10;;;;;;5051123;28;20122;-64
2022/04/15 06:50:07;;;;;;;6.43;2.70;;;16.80;56.00;;;;;;5044177;28;20396;-64
2022/04/15 06:52:32;;;;;;;5.82;2.78;;;16.80;55.90;;;;;;5037713;28;20116;-64
2022/04/15 06:54:58;;;;;;;4.53;2.10;;;16.70;55.80;;;;;;5048076;28;20076;-64
2022/04/15 06:57:24;;;;;;;6.43;2.50;;;16.70;55.80;;;;;;5047096;28;20067;-65
2022/04/15 06:59:49;;;;;;;5.68;2.33;;;16.70;55.70;;;;;;5035506;28;20472;-65
2022/04/15 07:02:15;;;;;;;7.93;2.58;;;16.70;55.60;;;;;;5061331;28;20033;-65
2022/04/15 07:04:41;;;;;;;5.35;2.38;;;16.80;55.30;;;;;;5054158;28;20083;-64
2022/04/15 07:07:06;;;;;;;4.50;2.22;;;16.90;55.00;;;;;;5060553;28;20025;-65
2022/04/15 07:09:32;;;;;;;5.65;2.55;;;17.00;55.30;;;;;;5052936;28;20025;-64
2022/04/15 07:11:58;;;;;;;5.18;2.10;;;16.90;54.50;;;;;;5038355;28;20033;-64
2022/04/15 07:14:23;;;;;;;4.18;1.88;;;16.60;54.70;;;;;;5058955;28;20079;-64
2022/04/15 07:16:49;;;;;;;4.25;1.80;;;16.40;54.80;;;;;;5072550;28;20173;-65
2022/04/15 07:19:15;;;;;;;5.47;2.05;;;16.20;55.10;;;;;;5055062;28;20087;-64
2022/04/15 07:21:42;;;;;;;5.40;2.28;;;15.90;55.30;;;;;;5060145;28;20035;-64
2022/04/15 07:24:08;;;;;;;4.88;2.22;;;15.70;55.70;;;;;;5070021;28;20128;-64
2022/04/15 07:26:33;;;;;;;5.55;2.25;;;15.40;56.00;;;;;;5072482;28;20111;-64
2022/04/15 07:28:59;;;;;;;5.13;2.00;;;15.30;56.40;;;;;;5058188;28;20366;-63
2022/04/15 07:31:25;;;;;;;4.50;1.90;;;15.10;56.70;;;;;;5058895;28;20033;-64
2022/04/15 07:33:51;;;;;;;4.60;1.92;;;14.90;57.00;;;;;;5060594;28;20400;-64
2022/04/15 07:39:05;;;;;;;4.10;2.00;;;14.70;57.40;;;;;;5057244;28;20035;-64
2022/04/15 07:41:31;;;;;;;3.83;1.70;;;14.50;57.60;;;;;;5049437;28;20476;-64
2022/04/15 07:43:56;;;;;;;5.40;1.90;;;14.40;57.90;;;;;;5053761;28;20037;-64
2022/04/15 07:46:22;;;;;;;4.43;1.95;;;14.40;58.20;;;;;;5054511;28;20348;-64
2022/04/15 07:48:48;;;;;;;6.68;2.03;;;14.30;58.40;;;;;;5049558;28;20021;-64
2022/04/15 07:51:13;;;;;;;5.60;1.73;;;14.20;58.50;;;;;;5034336;28;20336;-64
2022/04/15 07:53:39;;;;;;;5.65;2.40;;;14.10;58.80;;;;;;5034602;28;20095;-64
2022/04/15 07:56:05;;;;;;;4.57;1.95;;;14.00;59.00;;;;;;5034444;28;20520;-64
2022/04/15 07:58:31;;;;;;;5.13;2.10;;;14.00;59.10;;;;;;5034964;28;20029;-64
2022/04/15 08:01:00;;;;;;;4.95;2.10;;;13.90;59.20;;;;;;5054698;28;20037;-64
2022/04/15 08:03:28;;;;;;;5.47;2.33;;;13.90;59.30;;;;;;5057606;28;20469;-64
2022/04/15 08:05:54;;;;;;;4.88;2.25;;;13.90;59.50;;;;;;5057801;28;20339;-64
2022/04/15 08:08:21;;;;;;;5.22;2.28;;;13.80;59.60;;;;;;5056824;28;20029;-64
2022/04/15 08:10:51;;;;;;;5.47;2.40;;;13.80;59.70;;;;;;5057550;28;20042;-64
2022/04/15 08:13:17;;;;;;;4.97;2.40;;;13.80;59.90;;;;;;5058021;28;20380;-64
2022/04/15 08:15:44;;;;;;;5.45;2.00;;;13.80;59.90;;;;;;5040533;28;20446;-63
2022/04/15 08:18:09;;;;;;;7.18;2.40;;;13.80;60.00;;;;;;5037369;28;20099;-63
2022/04/15 08:20:35;;;;;;;6.38;2.42;;;13.80;60.10;;;;;;5037481;28;20038;-63
2022/04/15 08:23:03;;;;;;;4.40;2.22;;;13.80;60.20;;;;;;5037675;28;20030;-63
2022/04/15 08:25:30;;;;;;;6.75;2.45;;;13.80;60.30;;;;;;5037357;28;20109;-63
2022/04/15 08:27:55;;;;;;;6.22;2.67;;;13.80;60.40;;;;;;5037907;28;20053;-63
2022/04/15 08:30:21;;;;;;;9.35;2.90;;;13.70;60.40;;;;;;5036400;28;20084;-63
2022/04/15 08:32:53;;;;;;;7.05;2.67;;;13.70;60.50;;;;;;5040388;28;20106;-63
2022/04/15 08:35:20;;;;;;;5.85;2.63;;;13.70;60.70;;;;;;5056857;28;20060;-63
2022/04/15 08:37:45;;;;;;;6.15;2.78;;;13.70;60.80;;;;;;5056677;28;20021;-63
2022/04/15 08:40:12;;;;;;;7.57;2.97;;;13.70;60.80;;;;;;5055891;28;20086;-62
2022/04/15 08:42:40;;;;;;;7.38;3.15;;;13.60;60.90;;;;;;5056565;28;20040;-62
2022/04/15 08:45:07;;;;;;;5.63;2.75;;;13.70;61.10;;;;;;5055590;28;20032;-63
2022/04/15 08:47:35;;;;;;;7.00;3.00;;;13.70;61.20;;;;;;5056539;28;20090;-64
2022/04/15 08:50:01;;;;;;;7.43;2.97;;;13.70;61.10;;;;;;5056066;28;20523;-63
2022/04/15 08:52:27;;;;;;;6.43;3.10;;;13.70;61.10;;;;;;5055567;28;20115;-63
2022/04/15 08:54:53;;;;;;;7.32;3.15;;;13.70;61.20;;;;;;5056313;28;20114;-63
2022/04/15 08:57:18;;;;;;;8.35;3.22;;;13.70;61.20;;;;;;5057019;28;20056;-63
2022/04/15 08:59:44;;;;;;;8.68;3.60;;;13.70;61.20;;;;;;5055760;28;20025;-63
2022/04/15 09:02:14;;;;;;;7.55;3.30;;;13.70;61.30;;;;;;5062334;28;20114;-63
2022/04/15 09:04:39;;;;;;;6.95;3.05;;;13.60;61.40;;;;;;5074851;28;20069;-63
2022/04/15 09:07:05;;;;;;;7.90;3.92;;;13.60;61.40;;;;;;5066893;28;20329;-63
2022/04/15 09:09:32;;;;;;;8.45;3.67;;;13.60;61.60;;;;;;5060002;28;20032;-62
2022/04/15 09:12:00;;;;;;;8.73;3.47;;;13.60;61.70;;;;;;5056187;28;20060;-62
2022/04/15 09:14:26;;;;;;;8.32;3.47;;;13.60;61.70;;;;;;5055564;28;20041;-62
2022/04/15 09:16:52;;;;;;;6.90;3.72;;;13.60;61.70;;;;;;5055701;28;20156;-63
2022/04/15 09:19:19;;;;;;;7.18;3.75;;;13.60;61.80;;;;;;5060887;28;20075;-62
2022/04/15 09:21:53;;;;;;;8.25;3.67;;;13.60;61.90;;;;;;5060876;28;20350;-62
2022/04/15 09:24:33;;;;;;;8.27;4.45;;;13.50;61.70;;;;;;5045831;28;20048;-63
2022/04/15 09:27:06;;;;;;;8.27;4.07;;;13.50;61.80;;;;;;5056017;28;20074;-63
2022/04/15 09:29:41;;;;;;;9.27;4.10;;;13.50;61.90;;;;;;5056034;28;20060;-64
2022/04/15 09:32:14;;;;;;;8.02;3.85;;;13.50;62.00;;;;;;5055678;28;20056;-63
2022/04/15 09:34:57;;;;;;;9.90;4.80;;;13.50;62.10;;;;;;5051867;28;20031;-62
2022/04/15 09:37:31;;;;;;;9.48;4.15;;;13.50;62.00;;;;;;5051754;28;20133;-63
2022/04/15 09:40:25;;;;;;;9.88;4.15;;;13.40;62.00;;;;;;5055271;28;20163;-62
2022/04/15 09:42:58;;;;;;;10.23;4.90;;;13.40;61.90;;;;;;5056798;28;20053;-62
2022/04/15 09:45:30;;;;;;;8.63;4.13;;;13.40;62.00;;;;;;5058515;28;20171;-62
2022/04/15 09:48:02;;;;;;;9.43;4.72;;;13.40;62.00;;;;;;5060803;28;20029;-62
2022/04/15 09:50:42;;;;;;;7.78;4.50;;;13.40;62.10;;;;;;5055516;28;20051;-62
2022/04/15 09:53:12;;;;;;;10.40;5.20;;;13.40;62.10;;;;;;5050020;28;20071;-62
2022/04/15 09:55:42;;;;;;;9.57;4.18;;;13.40;62.20;;;;;;5069210;28;20033;-62
2022/04/15 09:58:08;;;;;;;10.35;5.00;;;13.50;62.20;;;;;;5060318;28;20037;-62
2022/04/15 10:00:36;;;;;;;9.20;4.30;;;13.50;62.20;;;;;;5063086;28;20033;-62
2022/04/15 10:03:05;;;;;;;8.25;5.03;;;13.50;62.10;;;;;;5057397;28;20041;-62
2022/04/15 10:05:32;;;;;;;8.25;4.30;;;13.50;62.10;;;;;;5064337;28;20453;-63
2022/04/15 10:07:59;;;;;;;9.00;4.68;;;13.50;62.10;;;;;;5056810;28;20366;-62
2022/04/15 10:10:28;;;;;;;11.27;4.88;;;13.50;62.20;;;;;;5055847;28;20326;-62
2022/04/15 10:12:55;;;;;;;10.50;4.43;;;13.50;62.20;;;;;;5061518;28;20031;-63
2022/04/15 10:15:21;;;;;;;8.95;4.88;;;13.50;62.30;;;;;;5056060;28;20029;-62
2022/04/15 10:17:46;;;;;;;8.15;4.30;;;13.50;62.30;;;;;;5045618;28;20078;-64
2022/04/15 10:20:12;;;;;;;8.65;4.38;;;13.60;62.30;;;;;;5054608;28;20358;-64
2022/04/15 10:22:40;;;;;;;9.25;4.50;;;13.60;62.20;;;;;;5055410;28;20434;-64
2022/04/15 10:25:07;;;;;;;8.90;4.13;;;13.60;62.10;;;;;;5057179;28;20353;-64
2022/04/15 10:27:33;;;;;;;8.55;4.53;;;13.60;62.10;;;;;;5043911;28;20075;-64
2022/04/15 10:30:21;;;;;;;8.73;4.68;;;13.60;62.10;;;;;;5054748;28;20029;-63
2022/04/15 10:32:57;;;;;;;8.52;4.80;;;13.70;62.10;;;;;;5053343;28;20041;-64
2022/04/15 10:35:28;;;;;;;9.18;4.72;;;13.70;61.90;;;;;;5053883;28;20108;-64
2022/04/15 10:37:57;;;;;;;10.77;5.03;;;13.70;61.90;;;;;;5048930;28;20032;-64
2022/04/15 10:40:27;;;;;;;9.50;4.47;;;13.70;61.90;;;;;;5061889;28;20035;-64
2022/04/15 10:42:53;;;;;;;11.93;4.97;;;13.70;61.90;;;;;;5036222;28;20048;-64
2022/04/15 10:45:36;;;;;;;9.32;5.82;;;13.70;62.00;;;;;;5053917;28;20033;-64
2022/04/15 10:48:03;;;;;;;10.27;5.10;;;13.80;62.10;;;;;;5053996;28;20098;-63
2022/04/15 10:50:31;;;;;;;9.95;5.28;;;13.70;62.00;;;;;;5054108;28;20389;-64
2022/04/15 10:53:20;;;;;;;10.60;5.30;;;13.80;62.10;;;;;;5053906;28;20040;-64
2022/04/15 10:55:52;;;;;;;14.43;5.30;;;13.80;62.10;;;;;;5055960;28;20460;-64
2022/04/15 10:58:19;;;;;;;9.95;5.20;;;13.70;62.20;;;;;;5053017;28;20535;-63
2022/04/15 11:01:14;;;;;;;9.32;5.10;;;13.70;62.40;;;;;;5053295;28;20029;-64
2022/04/15 11:03:41;;;;;;;8.85;4.60;;;13.70;62.40;;;;;;5049873;28;20037;-64
2022/04/15 11:06:09;;;;;;;11.35;5.50;;;13.70;62.40;;;;;;5050354;28;20021;-64
2022/04/15 11:08:51;;;;;;;10.45;5.40;;;13.70;62.40;;;;;;5053756;28;20029;-63
2022/04/15 11:11:18;;;;;;;10.23;5.65;;;13.70;62.60;;;;;;5056747;28;20021;-64
2022/04/15 11:13:44;;;;;;;9.63;5.53;;;13.70;62.60;;;;;;5053648;28;20115;-64
2022/04/15 11:16:10;;;;;;;11.38;5.70;;;13.70;62.60;;;;;;5049378;28;20180;-64
2022/04/15 11:18:59;;;;;;;8.88;5.22;;;13.70;62.40;;;;;;5047476;28;20033;-64
2022/04/15 11:21:32;;;;;;;12.57;5.75;;;13.80;62.40;;;;;;5054067;28;20036;-65
2022/04/15 11:24:10;;;;;;;9.98;5.03;;;13.80;62.50;;;;;;5036216;28;20037;-64
2022/04/15 11:26:38;;;;;;;9.57;5.30;;;13.80;62.40;;;;;;5054124;28;20048;-64
2022/04/15 11:29:05;;;;;;;8.80;5.00;;;13.80;62.30;;;;;;5049090;28;20032;-64
2022/04/15 11:31:33;;;;;;;9.98;4.80;;;13.90;62.20;;;;;;5053399;28;20037;-64
2022/04/15 11:34:05;;;;;;;8.48;4.32;;;13.90;61.90;;;;;;5052148;28;20393;-65
2022/04/15 11:36:33;;;;;;;9.38;4.75;;;13.90;61.60;;;;;;5061306;28;20036;-64
2022/04/15 11:39:01;;;;;;;9.88;4.85;;;13.90;61.40;;;;;;5062704;28;20029;-63
2022/04/15 11:41:28;;;;;;;8.57;4.32;;;13.90;61.20;;;;;;5058039;28;20051;-64
2022/04/15 11:44:02;;;;;;;7.43;4.38;;;13.90;61.10;;;;;;5057204;28;20111;-63
2022/04/15 11:46:52;;;;;;;9.32;4.43;;;14.00;61.00;;;;;;5058225;28;20044;-63
2022/04/15 11:49:23;;;;;;;7.95;4.68;;;14.00;60.90;;;;;;5058089;28;20037;-64
2022/04/15 11:51:52;;;;;;;8.02;4.70;;;14.00;60.80;;;;;;5057145;28;20029;-64
2022/04/15 11:54:23;;;;;;;7.80;4.07;;;14.00;60.80;;;;;;5065924;28;20032;-64
2022/04/15 11:56:54;;;;;;;9.45;4.05;;;14.10;61.40;;;;;;5071947;28;20032;-65
2022/04/15 11:59:20;;;;;;;7.55;4.30;;;14.10;60.70;;;;;;5063301;28;20107;-64
2022/04/15 12:01:45;;;;;;;9.18;4.25;;;14.20;60.60;;;;;;5057998;28;20112;-63
2022/04/15 12:04:12;;;;;;;9.15;4.38;;;14.20;60.40;;;;;;5062466;28;20032;-64
2022/04/15 12:06:41;;;;;;;8.60;4.03;;;14.20;60.40;;;;;;5054421;28;20523;-64
2022/04/15 12:09:12;;;;;;;7.93;4.20;;;14.30;60.30;;;;;;5060319;28;20082;-64
2022/04/15 12:11:39;;;;;;;8.55;4.35;;;14.30;60.10;;;;;;5062966;28;20331;-64
2022/04/15 12:14:06;;;;;;;8.50;4.10;;;14.30;60.00;;;;;;5058290;28;20032;-64
2022/04/15 12:16:34;;;;;;;8.27;4.07;;;14.30;59.80;;;;;;5065123;28;20025;-64
2022/04/15 12:19:01;;;;;;;7.47;4.45;;;14.40;59.80;;;;;;5060356;28;20039;-64
2022/04/15 12:21:29;;;;;;;9.52;4.40;;;14.40;59.60;;;;;;5057968;28;20120;-64
2022/04/15 12:24:09;;;;;;;8.82;4.70;;;14.40;59.40;;;;;;5073764;28;20032;-64
2022/04/15 12:26:41;;;;;;;9.65;4.90;;;14.40;59.40;;;;;;5075543;28;20031;-64
2022/04/15 12:31:51;;;;;;;8.77;4.53;;;14.40;59.50;;;;;;5056234;28;20084;-64
2022/04/15 12:34:17;;;;;;;7.22;3.92;;;14.40;59.40;;;;;;5057835;28;20037;-64
2022/04/15 12:36:45;;;;;;;9.50;4.53;;;14.40;59.40;;;;;;5057398;28;20021;-64
2022/04/15 12:39:12;;;;;;;8.30;4.32;;;14.50;59.40;;;;;;5053471;28;20341;-64
2022/04/15 12:41:42;;;;;;;9.15;4.22;;;14.50;59.40;;;;;;5050160;28;20025;-64
2022/04/15 12:44:29;;;;;;;7.80;4.60;;;14.60;59.30;;;;;;5056663;28;20332;-64
2022/04/15 12:46:57;;;;;;;8.60;4.30;;;14.60;59.10;;;;;;5044944;28;20441;-64
2022/04/15 12:49:30;;;;;;;7.63;4.30;;;14.70;59.20;;;;;;5055271;28;20454;-64